Terminal Aerodrome Forecast
Issued by NWS

Home | Current Version | Previous Version | Graphics & Text | Print | Product List | Glossary On
Versions: 1 2 3 4 5 6 7 8 9 10 11 12 13 14 15 16 17
000
FTUS43 KICT 200700 AAA
TAFRSL
TAF AMD
KRSL 200706Z 2007/2106 18014G20KT P6SM SCT110 BKN250
     FM201500 19020G29KT P6SM SCT250=

USA.gov is the U.S. government's official web portal to all federal, state and local government web resources and services.